CYPR/YPR METAR and TAF weather

Enter ICAO airport designator
Station Type Date Time Source
CYPR METAR 2018/04/27 01:00 UTC NOAA

CYPR 270100Z AUTO 23004KT 210V300 9SM CLR 12/08 A3002 RMK SLP168


Station Type Date Time Source
CYPR Decoded METAR 2018/04/27 01:00 UTC NOAA

Prince Rupert, B. C., Canada (CYPR) 54-18N 130-26W 34M
Apr 26, 2018 - 09:00 PM EDT / 2018.04.27 0100 UTC
Wind: from the SW (230 degrees) at 5 MPH (4 KT) (direction variable):0
Visibility: 9 mile(s):0
Sky conditions: clear
Temperature: 53 F (12 C)
Dew Point: 46 F (8 C)
Relative Humidity: 76%
Pressure (altimeter): 30.02 in. Hg (1016 hPa)
ob: CYPR 270100Z AUTO 23004KT 210V300 9SM CLR 12/08 A3002 RMK SLP168
cycle: 1

Station Type Date Time Source
CYPR TAF 2018/04/27 01:39 UTC NOAA

TAF TAF CYPR 270038Z 2701/2713 27006KT P6SM SKC
BECMG 2703/2705 VRB03KT
RMK FCST BASED ON AUTO OBS. NXT FCST BY 270700Z


Example: see airport list